logo
Rechercher aéroport 
image banner adimage banner adimage banner ad
image banner ad

SION - Tibagi

Situé à Guaramiranga, Brazil

ICAO - SION, IATA -

Données fournies par Airmate  

Information générale

Coordonnées: S4°15'5" W38°57'6"
Élévation : 2808 feet MSL.
Variation magnétique : -20.948550176° East
Voir autres Aéroports à Ceará

Données opérationnelles

Special qualification required
Heure actuelle UTC:
Heure actuelle locale:
Météo à : SBFZ - Pinto Martins ( 70 km )
METAR: SBFZ 220800Z 16009KT 9999 SCT020 26/24 Q1012
TAF: TAF SBFZ 220300Z 2206/2306 17005KT 9999 SCT020 TN26/2208Z TX31/2217Z BECMG 2212/2214 14010KT SCT025 BECMG 2215/2217 11015KT BECMG 2302/2304 17005KT SCT020 RMK PHD
Voir NOTAMs / SUP AIP / TFR affectant cet aéroport [VIEW]
Fréquences de communication: [VIEW]

Pistes:

Coordonnées de l'aéroport

Adresse: Guaramiranga Brazil

Vue satellite de SION